Time;durP1;ratioP1;P1;durP2;ratioP2;P2;SDS_P1;SDS_P2;PMS_P1;PMS_P2;Temp;Humidity;BMP_temperature;BMP_pressure;BME280_temperature;BME280_humidity;BME280_pressure;Samples;Min_cycle;Max_cycle;Signal;HPM_P1;HPM_P2
2020/12/29 00:01:44;;;;;;;26.20;10.10;;;0.20;99.90;;;;;;5028391;28;20080;-92
2020/12/29 00:04:15;;;;;;;23.40;9.10;;;0.20;99.90;;;;;;5037362;28;20483;-92
2020/12/29 00:06:48;;;;;;;15.98;7.35;;;0.10;99.90;;;;;;5022124;28;20026;-91
2020/12/29 00:09:17;;;;;;;14.15;7.35;;;0.10;99.90;;;;;;5024812;28;20009;-93
2020/12/29 00:11:48;;;;;;;12.27;6.20;;;0.10;99.90;;;;;;5049772;28;20017;-94
2020/12/29 00:14:17;;;;;;;18.50;7.25;;;0.10;99.90;;;;;;5063641;28;20043;-95
2020/12/29 00:16:53;;;;;;;16.67;7.05;;;0.10;99.90;;;;;;5039830;28;20057;-93
2020/12/29 00:19:25;;;;;;;19.48;9.05;;;0.00;99.90;;;;;;5025309;28;20045;-92
2020/12/29 00:21:55;;;;;;;20.75;9.25;;;0.10;99.90;;;;;;5029200;28;20037;-92
2020/12/29 00:24:25;;;;;;;22.80;8.38;;;0.00;99.90;;;;;;5026026;28;20398;-92
2020/12/29 00:26:53;;;;;;;17.88;7.70;;;0.00;99.90;;;;;;5024626;28;20120;-91
2020/12/29 00:29:19;;;;;;;21.10;7.85;;;0.00;99.90;;;;;;5036527;28;20660;-91
2020/12/29 00:31:51;;;;;;;18.55;7.30;;;0.00;99.90;;;;;;5005849;28;20029;-93
2020/12/29 00:34:17;;;;;;;23.33;9.35;;;0.00;99.90;;;;;;5024737;28;20025;-92
2020/12/29 00:36:44;;;;;;;21.95;9.07;;;0.10;99.90;;;;;;5024768;28;20155;-92
2020/12/29 00:39:12;;;;;;;14.93;7.90;;;0.10;99.90;;;;;;5023617;28;20562;-93
2020/12/29 00:41:38;;;;;;;23.05;9.00;;;0.10;99.90;;;;;;5027202;28;20036;-92
2020/12/29 00:44:06;;;;;;;24.27;10.20;;;0.00;99.90;;;;;;5023070;28;20021;-92
2020/12/29 00:46:32;;;;;;;22.55;9.82;;;0.10;99.90;;;;;;5023715;28;20053;-92
2020/12/29 00:49:00;;;;;;;17.17;7.35;;;0.10;99.90;;;;;;5023371;28;20544;-93
2020/12/29 00:51:27;;;;;;;20.13;8.50;;;0.10;99.90;;;;;;5021552;28;20102;-92
2020/12/29 00:53:52;;;;;;;27.98;11.00;;;0.10;99.90;;;;;;5022080;28;20022;-92
2020/12/29 00:56:19;;;;;;;23.92;10.15;;;0.10;99.90;;;;;;5025873;28;20107;-92
2020/12/29 00:58:46;;;;;;;23.52;8.35;;;0.20;99.90;;;;;;5032014;28;20025;-92
2020/12/29 01:01:14;;;;;;;14.65;7.60;;;0.20;99.90;;;;;;5025200;28;20037;-92
2020/12/29 01:03:40;;;;;;;16.17;7.53;;;0.20;99.90;;;;;;5030486;28;20017;-92
2020/12/29 01:06:06;;;;;;;23.83;9.73;;;0.10;99.90;;;;;;5029432;28;20029;-93
2020/12/29 01:08:32;;;;;;;15.82;7.28;;;0.20;99.90;;;;;;5044150;28;20128;-92
2020/12/29 01:11:00;;;;;;;16.80;7.57;;;0.20;99.90;;;;;;5025857;28;20029;-92
2020/12/29 01:13:26;;;;;;;14.50;7.40;;;0.20;99.90;;;;;;5026846;28;20111;-93
2020/12/29 01:15:57;;;;;;;14.60;6.95;;;0.20;99.90;;;;;;5049864;28;20032;-93
2020/12/29 01:18:26;;;;;;;16.25;8.25;;;0.20;99.90;;;;;;5043789;28;20061;-92
2020/12/29 01:20:53;;;;;;;15.07;7.10;;;0.20;99.90;;;;;;5034377;28;20128;-92
2020/12/29 01:23:19;;;;;;;17.92;7.25;;;0.20;99.90;;;;;;5032562;28;20025;-92
2020/12/29 01:25:48;;;;;;;13.63;6.43;;;0.20;99.90;;;;;;5032916;28;20032;-92
2020/12/29 01:28:14;;;;;;;14.10;6.03;;;0.20;99.90;;;;;;5033606;28;20485;-93
2020/12/29 01:30:42;;;;;;;16.65;6.97;;;0.20;99.90;;;;;;5040653;28;20021;-93
2020/12/29 01:33:11;;;;;;;15.98;6.35;;;0.20;99.90;;;;;;5035248;28;20055;-92
2020/12/29 01:35:38;;;;;;;11.23;5.50;;;0.20;99.90;;;;;;5034686;28;20117;-93
2020/12/29 01:38:05;;;;;;;13.25;5.50;;;0.20;99.90;;;;;;5036058;28;20061;-92
2020/12/29 01:40:33;;;;;;;13.07;5.88;;;0.20;99.90;;;;;;5031628;28;20052;-91
2020/12/29 01:42:59;;;;;;;12.60;6.15;;;0.10;99.90;;;;;;5033178;28;20030;-91
2020/12/29 01:45:25;;;;;;;14.88;6.05;;;0.10;99.90;;;;;;5032458;28;20033;-93
2020/12/29 01:47:52;;;;;;;14.43;6.55;;;0.10;99.90;;;;;;5033061;28;20030;-93
2020/12/29 01:50:21;;;;;;;14.13;5.82;;;0.10;99.90;;;;;;5035011;28;20034;-91
2020/12/29 01:52:58;;;;;;;15.82;6.05;;;0.10;99.90;;;;;;5032730;28;20079;-92
2020/12/29 01:55:24;;;;;;;11.18;5.72;;;0.10;99.90;;;;;;5034043;28;20025;-92
2020/12/29 01:57:53;;;;;;;14.75;6.18;;;0.10;99.90;;;;;;5037260;28;20061;-92
2020/12/29 02:00:20;;;;;;;16.80;7.45;;;0.10;99.90;;;;;;5054809;28;20037;-92
2020/12/29 02:02:46;;;;;;;13.43;5.65;;;0.10;99.90;;;;;;5040011;28;20025;-92
2020/12/29 02:05:18;;;;;;;14.30;6.70;;;0.00;99.90;;;;;;5037994;28;20116;-93
2020/12/29 02:07:52;;;;;;;12.50;6.47;;;0.00;99.90;;;;;;5034885;28;20114;-92
2020/12/29 02:10:19;;;;;;;14.57;6.60;;;0.00;99.90;;;;;;5031768;28;20060;-93
2020/12/29 02:12:46;;;;;;;10.70;5.53;;;0.00;99.90;;;;;;5053384;28;20021;-92
2020/12/29 02:15:15;;;;;;;14.52;6.32;;;0.00;99.90;;;;;;5026714;28;20045;-92
2020/12/29 02:17:42;;;;;;;11.85;5.65;;;0.00;99.90;;;;;;5027358;28;20032;-92
2020/12/29 02:20:10;;;;;;;17.92;6.95;;;0.00;99.90;;;;;;5025686;28;20025;-92
2020/12/29 02:22:40;;;;;;;17.25;7.13;;;0.00;99.90;;;;;;5006077;28;20037;-91
2020/12/29 02:25:07;;;;;;;13.98;6.32;;;0.00;99.90;;;;;;5022828;28;20061;-92
2020/12/29 02:27:48;;;;;;;19.98;7.97;;;0.00;99.90;;;;;;5026566;28;20029;-92
2020/12/29 02:30:19;;;;;;;16.30;6.78;;;0.00;99.90;;;;;;5041707;28;20093;-92
2020/12/29 02:32:46;;;;;;;15.65;6.78;;;0.00;99.90;;;;;;5028226;28;20064;-93
2020/12/29 02:35:20;;;;;;;19.52;6.05;;;0.00;99.90;;;;;;5042877;28;20026;-92
2020/12/29 02:37:51;;;;;;;11.93;4.75;;;0.00;99.90;;;;;;5043869;28;20038;-93
2020/12/29 02:40:23;;;;;;;11.73;4.47;;;0.00;99.90;;;;;;5043631;28;20483;-92
2020/12/29 02:42:53;;;;;;;20.08;5.60;;;0.10;99.90;;;;;;5028715;28;20113;-92
2020/12/29 02:45:20;;;;;;;16.35;5.88;;;0.10;99.90;;;;;;5027835;28;20385;-91
2020/12/29 02:47:46;;;;;;;14.30;5.90;;;0.10;99.90;;;;;;5029842;28;20025;-92
2020/12/29 02:50:14;;;;;;;15.13;5.50;;;0.10;99.90;;;;;;5026094;28;20033;-92
2020/12/29 02:52:44;;;;;;;11.73;5.53;;;0.10;99.90;;;;;;5035746;28;20033;-93
2020/12/29 02:55:10;;;;;;;13.32;5.45;;;0.10;99.90;;;;;;5015151;28;20029;-92
2020/12/29 02:57:36;;;;;;;11.95;5.30;;;0.10;99.90;;;;;;5013681;28;20467;-93
2020/12/29 03:00:04;;;;;;;13.32;5.15;;;0.10;99.90;;;;;;5031259;28;20521;-93
2020/12/29 03:02:30;;;;;;;12.40;5.00;;;0.10;99.90;;;;;;5015886;28;20033;-92
2020/12/29 03:04:58;;;;;;;11.63;4.78;;;0.20;99.90;;;;;;5015606;28;20536;-93
2020/12/29 03:07:24;;;;;;;11.55;4.90;;;0.20;99.90;;;;;;5014825;28;20108;-93
2020/12/29 03:09:50;;;;;;;15.68;5.28;;;0.10;99.90;;;;;;5015718;28;20442;-91
2020/12/29 03:12:16;;;;;;;16.63;6.07;;;0.10;99.90;;;;;;5016930;28;20025;-94
2020/12/29 03:14:42;;;;;;;12.52;6.13;;;0.10;99.90;;;;;;5026822;28;20837;-93
2020/12/29 03:17:09;;;;;;;15.73;5.88;;;0.10;99.90;;;;;;5032472;28;20504;-93
2020/12/29 03:19:35;;;;;;;9.48;4.28;;;0.10;99.90;;;;;;5030313;28;20021;-92
2020/12/29 03:22:05;;;;;;;12.05;4.15;;;0.10;99.90;;;;;;5035985;28;20034;-93
2020/12/29 03:24:33;;;;;;;10.40;4.80;;;0.10;99.90;;;;;;5030333;28;20044;-92
2020/12/29 03:27:03;;;;;;;8.65;3.88;;;0.20;99.90;;;;;;5032545;28;20033;-93
2020/12/29 03:29:30;;;;;;;5.65;3.30;;;0.30;99.90;;;;;;5019557;28;20045;-92
2020/12/29 03:31:58;;;;;;;10.23;3.83;;;0.40;99.90;;;;;;5030194;28;20079;-93
2020/12/29 03:34:27;;;;;;;8.02;3.58;;;0.40;99.90;;;;;;5030746;28;20144;-94
2020/12/29 03:37:03;;;;;;;12.13;4.40;;;0.50;99.90;;;;;;5031415;28;20041;-92
2020/12/29 03:39:34;;;;;;;12.00;4.70;;;0.50;99.90;;;;;;5019537;28;20030;-93
2020/12/29 03:42:03;;;;;;;7.80;3.88;;;0.60;99.90;;;;;;5033644;28;20048;-94
2020/12/29 03:44:34;;;;;;;10.10;3.92;;;0.50;99.90;;;;;;5032245;28;20034;-93
2020/12/29 03:47:01;;;;;;;;;;;0.60;99.90;;;;;;5030187;28;20037;-92
2020/12/29 03:49:27;;;;;;;10.40;4.32;;;0.60;99.90;;;;;;5042831;28;19911;-93
2020/12/29 03:52:03;;;;;;;14.07;5.07;;;0.50;99.90;;;;;;5034649;28;20112;-92
2020/12/29 03:54:34;;;;;;;12.63;3.97;;;0.50;99.90;;;;;;5035279;28;20032;-93
2020/12/29 03:57:03;;;;;;;10.80;3.97;;;0.50;99.90;;;;;;5034814;28;20509;-94
2020/12/29 03:59:30;;;;;;;6.57;3.22;;;0.50;99.90;;;;;;5033503;28;20425;-92
2020/12/29 04:01:58;;;;;;;8.88;4.00;;;0.50;99.90;;;;;;5016369;28;20128;-92
2020/12/29 04:04:25;;;;;;;8.05;3.53;;;0.50;99.90;;;;;;5016645;28;20509;-92
2020/12/29 04:06:51;;;;;;;7.93;3.65;;;0.50;99.90;;;;;;5032602;28;20021;-93
2020/12/29 04:09:17;;;;;;;9.10;3.63;;;0.50;99.90;;;;;;5033908;28;20025;-93
2020/12/29 04:11:46;;;;;;;8.68;3.20;;;0.50;99.90;;;;;;5034089;28;20022;-92
2020/12/29 04:14:12;;;;;;;8.35;3.90;;;0.50;99.90;;;;;;5028067;28;20060;-93
2020/12/29 04:16:38;;;;;;;7.65;3.83;;;0.40;99.90;;;;;;5001357;28;20037;-93
2020/12/29 04:19:05;;;;;;;11.52;3.83;;;0.40;99.90;;;;;;5017675;28;20114;-93
2020/12/29 04:21:30;;;;;;;6.43;3.10;;;0.40;99.90;;;;;;5020433;28;20033;-93
2020/12/29 04:23:59;;;;;;;8.35;3.55;;;0.40;99.90;;;;;;5018648;28;20028;-93
2020/12/29 04:26:25;;;;;;;12.32;3.60;;;0.40;99.90;;;;;;5022876;28;20025;-92
2020/12/29 04:28:51;;;;;;;9.77;3.75;;;0.40;99.90;;;;;;5020412;28;20540;-92
2020/12/29 04:31:22;;;;;;;6.63;3.13;;;0.40;99.90;;;;;;5018841;28;20017;-92
2020/12/29 04:33:49;;;;;;;10.80;3.53;;;0.40;99.90;;;;;;5023392;28;20029;-92
2020/12/29 04:36:17;;;;;;;7.40;3.17;;;0.40;99.90;;;;;;5002755;28;20021;-92
2020/12/29 04:38:43;;;;;;;11.90;3.15;;;0.40;99.90;;;;;;5022627;28;20032;-92
2020/12/29 04:41:13;;;;;;;9.27;3.08;;;0.40;99.90;;;;;;5019666;28;20565;-92
2020/12/29 04:43:40;;;;;;;6.90;3.00;;;0.40;99.90;;;;;;5028860;28;20025;-93
2020/12/29 04:46:09;;;;;;;6.95;3.33;;;0.40;99.90;;;;;;5033436;28;20033;-92
2020/12/29 04:48:38;;;;;;;8.77;3.05;;;0.40;99.90;;;;;;5018503;28;20028;-93
2020/12/29 04:51:07;;;;;;;8.82;3.15;;;0.40;99.90;;;;;;5035784;28;20036;-93
2020/12/29 04:53:37;;;;;;;8.70;3.42;;;0.40;99.90;;;;;;4997447;28;20041;-94
2020/12/29 04:56:07;;;;;;;10.77;3.40;;;0.50;99.90;;;;;;5020304;28;20040;-93
2020/12/29 04:58:36;;;;;;;6.75;3.10;;;0.50;99.90;;;;;;5019280;28;20071;-93
2020/12/29 05:01:08;;;;;;;7.45;2.80;;;0.50;99.90;;;;;;5020630;28;20524;-93
2020/12/29 05:03:45;;;;;;;9.07;3.35;;;0.60;99.90;;;;;;5015142;28;20025;-93
2020/12/29 05:06:14;;;;;;;9.25;3.13;;;0.60;99.90;;;;;;5018932;28;20033;-93
2020/12/29 05:08:47;;;;;;;5.43;2.78;;;0.60;99.90;;;;;;5021495;28;20109;-92
2020/12/29 05:11:14;;;;;;;7.50;3.20;;;0.60;99.90;;;;;;5018684;28;20512;-93
2020/12/29 05:13:44;;;;;;;7.20;3.13;;;0.60;99.90;;;;;;5023784;28;20040;-93
2020/12/29 05:16:14;;;;;;;7.00;3.37;;;0.60;99.90;;;;;;5033235;28;20045;-93
2020/12/29 05:18:40;;;;;;;9.02;3.42;;;0.70;99.90;;;;;;5017823;28;20079;-93
2020/12/29 05:21:06;;;;;;;5.25;2.90;;;0.70;99.90;;;;;;5034526;28;20981;-94
2020/12/29 05:23:37;;;;;;;9.70;3.95;;;0.70;99.90;;;;;;5039510;28;20029;-94
2020/12/29 05:26:04;;;;;;;8.27;3.55;;;0.70;99.90;;;;;;5035291;28;20022;-92
2020/12/29 05:28:30;;;;;;;6.60;2.65;;;0.70;99.90;;;;;;5036259;28;20091;-93
2020/12/29 05:30:58;;;;;;;6.72;3.20;;;0.80;99.90;;;;;;5042963;28;20068;-92
2020/12/29 05:33:26;;;;;;;8.30;2.55;;;0.80;99.90;;;;;;5045513;28;20021;-92
2020/12/29 05:35:57;;;;;;;9.07;3.35;;;0.80;99.90;;;;;;5028789;28;20128;-93
2020/12/29 05:38:25;;;;;;;8.57;3.60;;;0.90;99.90;;;;;;5045170;28;20047;-93
2020/12/29 05:40:56;;;;;;;9.48;3.30;;;0.90;99.90;;;;;;5028837;28;20041;-93
2020/12/29 05:43:36;;;;;;;8.07;3.20;;;0.90;99.90;;;;;;5042504;28;20030;-93
2020/12/29 05:46:07;;;;;;;9.55;3.25;;;1.00;99.90;;;;;;5042849;28;20060;-93
2020/12/29 05:48:37;;;;;;;5.00;2.42;;;1.10;99.90;;;;;;5040151;28;20036;-93
2020/12/29 05:51:14;;;;;;;11.45;3.47;;;1.10;99.90;;;;;;5026718;28;20026;-92
2020/12/29 05:53:43;;;;;;;7.47;2.97;;;1.10;99.90;;;;;;5043535;28;20022;-94
2020/12/29 05:56:12;;;;;;;6.88;2.83;;;1.20;99.90;;;;;;5039676;28;20096;-93
2020/12/29 05:58:42;;;;;;;8.00;2.42;;;1.20;99.90;;;;;;5041900;28;20030;-94
2020/12/29 06:01:13;;;;;;;7.88;2.78;;;1.20;99.90;;;;;;5040007;28;20037;-93
2020/12/29 06:03:46;;;;;;;9.43;3.03;;;1.30;99.90;;;;;;5021825;28;20041;-94
2020/12/29 06:06:14;;;;;;;8.52;3.22;;;1.30;99.90;;;;;;5038740;28;20063;-95
2020/12/29 06:08:43;;;;;;;6.18;2.70;;;1.30;99.90;;;;;;5044749;28;20025;-93
2020/12/29 06:11:13;;;;;;;3.47;1.88;;;1.40;99.90;;;;;;5056607;28;20478;-94
2020/12/29 06:13:46;;;;;;;;;;;1.40;99.90;;;;;;5039456;28;20053;-94
2020/12/29 06:16:16;;;;;;;7.00;3.83;;;1.40;99.90;;;;;;5023504;28;19909;-93
2020/12/29 06:18:47;;;;;;;6.93;2.53;;;1.40;99.90;;;;;;5043239;28;20026;-94
2020/12/29 06:21:16;;;;;;;3.67;2.20;;;1.40;99.90;;;;;;5027522;28;20102;-92
2020/12/29 06:23:48;;;;;;;6.25;2.30;;;1.50;99.90;;;;;;5025236;28;20026;-94
2020/12/29 06:26:18;;;;;;;4.70;2.38;;;1.50;99.90;;;;;;5039119;28;20173;-94
2020/12/29 06:28:48;;;;;;;5.35;2.28;;;1.50;99.90;;;;;;5020966;28;20049;-93
2020/12/29 06:31:25;;;;;;;5.82;2.67;;;1.50;99.90;;;;;;5034513;28;20041;-93
2020/12/29 06:33:54;;;;;;;6.05;2.25;;;1.50;99.90;;;;;;5017242;28;20021;-94
2020/12/29 06:36:21;;;;;;;5.28;2.90;;;1.50;99.90;;;;;;5024297;28;20041;-95
2020/12/29 06:38:49;;;;;;;4.80;2.42;;;1.50;99.90;;;;;;5022348;28;20116;-93
2020/12/29 06:41:19;;;;;;;3.70;2.53;;;1.50;99.90;;;;;;5023238;28;20091;-94
2020/12/29 06:43:46;;;;;;;5.85;2.63;;;1.50;99.90;;;;;;5023481;28;20085;-95
2020/12/29 06:46:14;;;;;;;3.80;1.90;;;1.50;99.90;;;;;;5025646;28;20063;-94
2020/12/29 06:48:41;;;;;;;5.57;3.13;;;1.50;99.90;;;;;;5025440;28;20056;-95
2020/12/29 06:51:13;;;;;;;3.15;1.90;;;1.50;99.90;;;;;;5031208;28;20048;-95
2020/12/29 06:53:42;;;;;;;2.63;1.63;;;1.60;99.90;;;;;;5056185;28;20465;-95
2020/12/29 06:56:18;;;;;;;4.05;1.88;;;1.50;99.90;;;;;;5056588;28;20013;-95
2020/12/29 06:58:44;;;;;;;3.17;1.50;;;1.50;99.90;;;;;;5025945;28;20060;-94
2020/12/29 07:01:19;;;;;;;4.97;1.90;;;1.50;99.90;;;;;;5017282;28;20120;-95
2020/12/29 07:03:45;;;;;;;3.40;1.40;;;1.50;99.90;;;;;;5020191;28;20049;-94
2020/12/29 07:06:11;;;;;;;1.85;1.42;;;1.50;99.90;;;;;;5019753;28;20044;-94
2020/12/29 07:08:38;;;;;;;2.28;1.23;;;1.50;99.90;;;;;;5024435;28;20030;-95
2020/12/29 07:11:22;;;;;;;1.65;1.25;;;1.50;99.90;;;;;;5022939;28;20448;-94
2020/12/29 07:13:52;;;;;;;2.60;1.15;;;1.50;99.90;;;;;;5034444;28;20103;-94
2020/12/29 07:16:25;;;;;;;2.13;0.87;;;1.50;99.90;;;;;;5051853;28;20474;-95
2020/12/29 07:18:52;;;;;;;3.28;0.90;;;1.50;99.90;;;;;;5036568;28;20084;-94
2020/12/29 07:21:28;;;;;;;2.17;0.90;;;1.50;99.90;;;;;;5036227;28;20616;-94
2020/12/29 07:23:55;;;;;;;2.28;0.80;;;1.50;99.90;;;;;;5040563;28;20030;-94
2020/12/29 07:26:23;;;;;;;1.30;0.88;;;1.50;99.90;;;;;;5046112;28;20116;-94
2020/12/29 07:28:55;;;;;;;1.75;1.10;;;1.50;99.90;;;;;;5049154;28;20022;-95
2020/12/29 07:31:21;;;;;;;4.57;1.30;;;1.50;99.90;;;;;;5050088;28;20033;-95
2020/12/29 07:33:53;;;;;;;1.95;1.20;;;1.50;99.90;;;;;;5049148;28;20029;-95
2020/12/29 07:36:20;;;;;;;2.78;1.27;;;1.50;99.90;;;;;;5069234;28;20072;-96
2020/12/29 07:38:48;;;;;;;4.90;1.08;;;1.40;99.90;;;;;;5053121;28;20029;-94
2020/12/29 07:41:18;;;;;;;2.60;1.35;;;1.40;99.90;;;;;;5054667;28;20041;-91
2020/12/29 07:43:46;;;;;;;1.83;1.42;;;1.40;99.90;;;;;;5055848;28;20044;-93
2020/12/29 07:46:12;;;;;;;1.65;1.17;;;1.40;99.90;;;;;;5054621;28;20013;-94
2020/12/29 07:48:39;;;;;;;0.70;0.70;;;1.30;99.90;;;;;;5054733;28;20044;-92
2020/12/29 07:51:05;;;;;;;0.77;0.70;;;1.30;99.90;;;;;;5037327;28;20037;-92
2020/12/29 07:53:37;;;;;;;1.10;0.63;;;1.30;99.90;;;;;;5052407;28;20029;-96
2020/12/29 07:56:03;;;;;;;1.20;0.50;;;1.20;99.90;;;;;;5053620;28;20070;-91
2020/12/29 07:58:29;;;;;;;0.65;0.43;;;1.20;99.90;;;;;;5052792;28;20038;-96
2020/12/29 08:00:54;;;;;;;0.30;0.30;;;1.20;99.90;;;;;;5052200;28;20029;-93
2020/12/29 08:03:21;;;;;;;2.17;0.35;;;1.20;99.90;;;;;;5056191;28;20029;-92
2020/12/29 08:05:46;;;;;;;1.27;0.50;;;1.10;99.90;;;;;;5054275;28;20032;-92
2020/12/29 08:08:15;;;;;;;0.30;0.30;;;1.10;99.90;;;;;;5054387;28;20010;-91
2020/12/29 08:10:47;;;;;;;0.32;0.32;;;1.10;99.90;;;;;;5054313;28;20010;-93
2020/12/29 08:13:19;;;;;;;0.30;0.30;;;1.10;99.90;;;;;;5053243;28;20021;-94
2020/12/29 08:15:47;;;;;;;0.57;0.30;;;1.10;99.90;;;;;;5052086;28;20037;-92
2020/12/29 08:18:17;;;;;;;0.65;0.40;;;1.10;99.90;;;;;;5047251;28;20024;-95
2020/12/29 08:20:46;;;;;;;0.45;0.30;;;1.00;99.90;;;;;;5043941;28;20114;-95
2020/12/29 08:23:13;;;;;;;1.48;0.20;;;1.00;99.90;;;;;;5045799;28;20483;-95
2020/12/29 08:25:40;;;;;;;1.80;0.65;;;1.00;99.90;;;;;;5044826;28;20033;-95
2020/12/29 08:28:07;;;;;;;0.13;0.13;;;1.00;99.90;;;;;;5039414;28;20029;-95
2020/12/29 08:30:38;;;;;;;2.50;0.60;;;1.00;99.90;;;;;;5036598;28;20041;-96
2020/12/29 08:33:05;;;;;;;11.23;2.80;;;1.00;99.90;;;;;;5034620;28;20044;-95
2020/12/29 08:35:52;;;;;;;12.15;3.13;;;1.00;99.90;;;;;;5049752;28;20016;-94
2020/12/29 08:38:34;;;;;;;2.45;0.85;;;1.00;99.90;;;;;;5073600;28;20038;-92
2020/12/29 08:41:36;;;;;;;3.60;0.80;;;1.00;99.90;;;;;;5058139;28;20049;-95
2020/12/29 08:44:11;;;;;;;0.20;0.20;;;1.00;99.90;;;;;;5001272;28;20041;-95
2020/12/29 08:46:56;;;;;;;0.10;0.10;;;1.00;99.90;;;;;;5008223;28;20030;-95
2020/12/29 08:49:31;;;;;;;0.13;0.10;;;1.10;99.90;;;;;;4992301;28;20104;-95
2020/12/29 08:52:02;;;;;;;2.65;0.20;;;1.10;99.90;;;;;;4994592;28;20137;-95
2020/12/29 08:54:36;;;;;;;;;;;1.20;99.90;;;;;;5013700;28;20022;-95
2020/12/29 08:57:05;;;;;;;0.35;0.20;;;1.20;99.90;;;;;;4993201;28;20405;-95
2020/12/29 08:59:53;;;;;;;0.30;0.28;;;1.20;99.90;;;;;;5003334;28;20038;-94
2020/12/29 09:02:30;;;;;;;0.63;0.40;;;1.30;99.90;;;;;;4996628;28;20139;-95
2020/12/29 09:05:03;;;;;;;1.70;0.50;;;1.40;99.90;;;;;;4994912;28;20067;-96
2020/12/29 09:07:42;;;;;;;0.77;0.55;;;1.40;99.90;;;;;;4988154;28;20169;-96
2020/12/29 09:10:32;;;;;;;0.90;0.60;;;1.50;99.90;;;;;;4978012;28;20046;-95
2020/12/29 09:13:11;;;;;;;0.47;0.47;;;1.50;99.90;;;;;;5001111;28;20042;-95
2020/12/29 09:15:46;;;;;;;0.77;0.57;;;1.50;99.90;;;;;;5001391;28;20050;-94
2020/12/29 09:18:14;;;;;;;0.68;0.57;;;1.50;99.90;;;;;;4983514;28;20479;-96
2020/12/29 09:20:39;;;;;;;1.23;1.10;;;1.60;99.90;;;;;;5011614;28;20043;-94
2020/12/29 09:23:18;;;;;;;1.77;1.10;;;1.60;99.90;;;;;;5031443;28;20120;-94
2020/12/29 09:25:45;;;;;;;3.20;1.10;;;1.70;99.90;;;;;;5032269;28;20045;-95
2020/12/29 09:28:20;;;;;;;1.20;1.10;;;1.70;99.90;;;;;;5032636;28;20026;-94
2020/12/29 09:31:07;;;;;;;1.67;0.93;;;1.80;99.90;;;;;;5032577;28;20029;-94
2020/12/29 09:33:37;;;;;;;1.40;1.30;;;1.80;99.90;;;;;;5031823;28;20092;-93
2020/12/29 09:36:17;;;;;;;1.92;1.00;;;1.90;99.90;;;;;;5048578;28;20053;-93
2020/12/29 09:38:42;;;;;;;1.10;1.00;;;1.90;99.90;;;;;;5016473;28;20087;-92
2020/12/29 09:41:08;;;;;;;1.70;0.98;;;1.90;99.90;;;;;;5029838;28;20060;-91
2020/12/29 09:43:38;;;;;;;0.82;0.82;;;1.80;99.90;;;;;;5031814;28;20034;-92
2020/12/29 09:46:30;;;;;;;1.23;1.08;;;1.90;99.90;;;;;;5030590;28;20029;-93
2020/12/29 09:48:56;;;;;;;0.70;0.70;;;1.80;99.90;;;;;;5029625;28;20064;-94
2020/12/29 09:51:22;;;;;;;0.80;0.70;;;1.80;99.90;;;;;;5033447;28;20053;-94
2020/12/29 09:53:55;;;;;;;0.85;0.80;;;1.80;99.90;;;;;;5027076;28;20387;-95
2020/12/29 09:56:22;;;;;;;1.17;0.90;;;1.80;99.90;;;;;;5031091;28;20212;-93
2020/12/29 09:58:53;;;;;;;1.13;0.93;;;1.80;99.90;;;;;;5016024;28;20026;-94
2020/12/29 10:01:21;;;;;;;1.40;1.10;;;1.80;99.90;;;;;;5036040;28;20037;-94
2020/12/29 10:04:02;;;;;;;1.45;1.17;;;1.80;99.90;;;;;;5032579;28;20033;-95
2020/12/29 10:06:28;;;;;;;;;;;1.80;99.90;;;;;;5036809;28;20091;-94
2020/12/29 10:08:53;;;;;;;1.67;1.45;;;1.80;99.90;;;;;;5034984;28;19905;-95
2020/12/29 10:11:21;;;;;;;3.00;1.70;;;1.80;99.90;;;;;;5045022;28;20117;-94
2020/12/29 10:13:47;;;;;;;6.25;2.20;;;1.80;99.90;;;;;;5047123;28;20021;-96
2020/12/29 10:16:22;;;;;;;1.63;1.52;;;1.90;99.90;;;;;;5040100;28;20383;-94
2020/12/29 10:18:50;;;;;;;2.80;1.95;;;1.90;99.90;;;;;;5018925;28;20092;-95
2020/12/29 10:21:16;;;;;;;1.75;1.52;;;2.00;99.90;;;;;;5027576;28;20100;-94
2020/12/29 10:23:42;;;;;;;8.43;2.72;;;2.00;99.90;;;;;;5035281;28;20057;-94
2020/12/29 10:26:08;;;;;;;3.78;2.53;;;2.10;99.90;;;;;;5024548;28;20032;-93
2020/12/29 10:28:35;;;;;;;3.40;2.45;;;2.10;99.90;;;;;;5026621;28;20021;-93
2020/12/29 10:31:01;;;;;;;4.30;2.58;;;2.20;99.90;;;;;;5009119;28;20111;-93
2020/12/29 10:33:27;;;;;;;4.22;2.53;;;2.40;99.90;;;;;;5013917;28;20026;-93
2020/12/29 10:35:52;;;;;;;3.47;2.35;;;2.40;99.90;;;;;;5008544;28;20034;-93
2020/12/29 10:38:18;;;;;;;2.55;2.05;;;2.50;99.90;;;;;;5044458;28;20444;-93
2020/12/29 10:40:44;;;;;;;3.08;2.17;;;2.60;99.90;;;;;;5041417;28;20501;-93
2020/12/29 10:43:10;;;;;;;4.95;2.72;;;2.70;99.90;;;;;;5019222;28;20029;-93
2020/12/29 10:45:35;;;;;;;3.55;2.35;;;2.80;99.90;;;;;;5023750;28;20431;-92
2020/12/29 10:48:01;;;;;;;3.63;2.05;;;2.80;99.90;;;;;;5019088;28;20034;-92
2020/12/29 10:50:27;;;;;;;2.90;1.98;;;2.80;99.90;;;;;;5016136;28;20533;-92
2020/12/29 10:52:52;;;;;;;4.88;2.53;;;2.80;99.90;;;;;;5016369;28;20029;-93
2020/12/29 10:55:18;;;;;;;3.92;2.00;;;2.80;99.90;;;;;;5032464;28;20028;-93
2020/12/29 10:57:44;;;;;;;3.30;2.13;;;2.80;99.90;;;;;;5016959;28;20364;-92
2020/12/29 11:00:10;;;;;;;4.38;2.40;;;2.80;99.90;;;;;;5031500;28;20025;-91
2020/12/29 11:02:35;;;;;;;2.53;2.00;;;2.80;99.90;;;;;;5025118;28;20040;-92
2020/12/29 11:05:01;;;;;;;6.80;2.10;;;2.80;99.90;;;;;;5029386;28;20029;-94
2020/12/29 11:07:31;;;;;;;5.82;2.13;;;2.80;99.90;;;;;;5038631;28;20096;-93
2020/12/29 11:09:57;;;;;;;2.58;1.50;;;2.80;99.90;;;;;;5018002;28;20093;-93
2020/12/29 11:12:23;;;;;;;4.70;2.08;;;2.90;99.90;;;;;;5019090;28;20028;-92
2020/12/29 11:14:49;;;;;;;2.70;2.47;;;2.90;99.90;;;;;;5024968;28;20046;-93
2020/12/29 11:17:14;;;;;;;3.08;1.92;;;3.00;99.90;;;;;;5035824;28;20605;-94
2020/12/29 11:19:40;;;;;;;3.00;1.70;;;3.00;99.90;;;;;;5030634;28;20363;-93
2020/12/29 11:22:06;;;;;;;4.43;2.00;;;3.10;99.90;;;;;;5033190;28;20048;-94
2020/12/29 11:24:32;;;;;;;4.65;1.83;;;3.20;99.90;;;;;;5049928;28;20029;-95
2020/12/29 11:26:57;;;;;;;3.08;1.55;;;3.20;99.90;;;;;;5028656;28;20044;-93
2020/12/29 11:29:23;;;;;;;3.75;1.60;;;3.20;99.90;;;;;;5037297;28;20032;-94
2020/12/29 11:31:49;;;;;;;7.10;1.67;;;3.20;99.90;;;;;;5029665;28;20116;-94
2020/12/29 11:34:14;;;;;;;3.08;1.85;;;3.20;99.90;;;;;;5033772;28;20067;-93
2020/12/29 11:36:40;;;;;;;1.50;1.40;;;3.30;99.90;;;;;;5029750;28;20120;-94
2020/12/29 11:39:09;;;;;;;4.50;2.00;;;3.40;99.90;;;;;;5034349;28;20039;-94
2020/12/29 11:41:34;;;;;;;6.40;1.48;;;3.50;99.90;;;;;;5030347;28;20029;-94
2020/12/29 11:44:00;;;;;;;3.72;1.90;;;3.50;99.90;;;;;;5033139;28;20029;-92
2020/12/29 11:46:26;;;;;;;1.70;1.35;;;3.60;99.90;;;;;;5033091;28;20049;-94
2020/12/29 11:48:52;;;;;;;3.15;2.78;;;3.60;99.90;;;;;;5045326;28;20025;-93
2020/12/29 11:51:18;;;;;;;1.60;1.50;;;3.60;99.90;;;;;;5029373;28;20093;-93
2020/12/29 11:53:43;;;;;;;2.00;1.80;;;3.60;99.90;;;;;;5034516;28;20048;-94
2020/12/29 11:56:10;;;;;;;3.60;1.60;;;3.60;99.90;;;;;;5038191;28;20044;-93
2020/12/29 11:58:36;;;;;;;2.42;1.83;;;3.50;99.90;;;;;;5029533;28;20013;-95
2020/12/29 12:01:02;;;;;;;3.30;1.63;;;3.50;99.90;;;;;;5030165;28;20038;-96
2020/12/29 12:03:28;;;;;;;5.05;1.52;;;3.50;99.90;;;;;;5031891;28;20021;-94
2020/12/29 12:05:54;;;;;;;3.95;1.85;;;3.40;99.90;;;;;;5030542;28;20056;-94
2020/12/29 12:08:20;;;;;;;3.17;1.92;;;3.40;99.90;;;;;;5032627;28;20021;-94
2020/12/29 12:10:45;;;;;;;7.28;2.70;;;3.40;99.90;;;;;;5032420;28;20475;-95
2020/12/29 12:13:11;;;;;;;5.15;2.53;;;3.30;99.90;;;;;;5036411;28;20025;-95
2020/12/29 12:15:37;;;;;;;1.90;1.70;;;3.30;99.90;;;;;;5036166;28;20044;-95
2020/12/29 12:18:03;;;;;;;6.53;1.95;;;3.20;99.90;;;;;;5032520;28;20040;-93
2020/12/29 12:20:28;;;;;;;4.90;1.90;;;3.20;99.90;;;;;;5034877;28;20436;-92
2020/12/29 12:22:54;;;;;;;3.95;2.17;;;3.20;99.90;;;;;;5034060;28;20061;-94
2020/12/29 12:25:20;;;;;;;3.63;1.98;;;3.20;99.90;;;;;;5032671;28;20053;-93
2020/12/29 12:27:46;;;;;;;4.78;1.90;;;3.20;99.90;;;;;;5033185;28;20029;-92
2020/12/29 12:30:11;;;;;;;5.28;2.38;;;3.10;99.90;;;;;;5032112;28;20033;-93
2020/12/29 12:32:38;;;;;;;3.97;2.10;;;3.10;99.90;;;;;;5036542;28;20022;-91
2020/12/29 12:35:04;;;;;;;4.80;2.08;;;3.10;99.90;;;;;;5034832;28;20037;-92
2020/12/29 12:37:30;;;;;;;8.75;2.28;;;3.10;99.90;;;;;;5034558;28;20034;-91
2020/12/29 12:39:56;;;;;;;3.05;1.80;;;3.10;99.90;;;;;;5036686;28;20179;-91
2020/12/29 12:42:21;;;;;;;3.35;2.85;;;3.10;99.90;;;;;;5035227;28;20039;-93
2020/12/29 12:44:47;;;;;;;4.30;2.05;;;3.20;99.90;;;;;;5035840;28;20028;-92
2020/12/29 12:47:13;;;;;;;7.22;3.22;;;3.20;99.90;;;;;;5035743;28;20033;-92
2020/12/29 12:49:39;;;;;;;4.30;1.75;;;3.20;99.90;;;;;;5035413;28;20478;-92
2020/12/29 12:52:05;;;;;;;5.85;2.08;;;3.20;99.90;;;;;;5036834;28;20386;-91
2020/12/29 12:54:31;;;;;;;4.93;1.90;;;3.20;99.90;;;;;;5036632;28;20025;-93
2020/12/29 12:56:57;;;;;;;4.30;2.00;;;3.30;99.90;;;;;;5035923;28;20479;-94
2020/12/29 12:59:23;;;;;;;5.55;2.13;;;3.40;99.90;;;;;;5038635;28;20018;-93
2020/12/29 13:01:55;;;;;;;3.55;1.73;;;3.50;99.90;;;;;;5041610;28;20129;-94
2020/12/29 13:04:22;;;;;;;6.30;2.10;;;3.60;99.90;;;;;;5042519;28;20029;-95